EW3814 Weather Reports


Display with metric or nautical units.
time (UTC)temp
F
wind
direction
speed
MPH
gust
MPH
rain 1hr
in
rain 24hr
in
rain mn
in
humidity
%
barometer
mb
20190326002432 55 330 0.0 0.0 0.08 0.26 0.26 93 1012.7
20190326001933 55 330 0.0 0.0 0.09 0.25 0.25 93 1012.7
20190326001432 55 330 0.0 0.0 0.10 0.25 0.25 93 1012.7
20190326000932 55 330 0.0 0.0 0.10 0.24 0.24 93 1012.4
20190326000431 55 330 0.0 0.0 0.09 0.23 0.23 93 1012.5
20190325235933 55 330 0.0 0.0 0.10 0.23 0.23 93 1012.6
20190325235433 55 330 0.0 0.0 0.10 0.23 0.23 93 1012.5
20190325234932 55 330 0.0 0.0 0.10 0.22 0.22 92 1012.6
20190325234432 55 330 0.0 0.0 0.10 0.21 0.22 91 1012.7
20190325233932 55 330 0.0 0.0 0.11 0.21 0.21 91 1012.7
20190325233431 55 330 0.0 0.0 0.11 0.20 0.20 91 1012.7
20190325232931 55 330 0.0 0.0 0.11 0.19 0.19 91 1012.6
20190325232433 56 330 0.0 0.0 0.11 0.18 0.18 91 1012.6
20190325231931 56 330 0.0 0.0 0.10 0.16 0.16 92 1012.7
20190325231431 56 330 0.0 0.0 0.09 0.15 0.15 91 1012.6
20190325230933 56 330 0.0 0.0 0.09 0.14 0.14 91 1012.6
20190325230431 56 330 0.0 0.0 0.09 0.14 0.14 91 1012.6
20190325225930 56 330 0.0 0.0 0.08 0.13 0.13 91 1012.5
20190325225430 56 330 0.0 0.0 0.08 0.13 0.13 90 1012.4
20190325224927 56 330 0.0 0.0 0.08 0.12 0.12 90 1012.4
20190325224427 56 330 0.0 0.0 0.07 0.11 0.11 90 1012.5
20190325223924 56 330 0.0 0.0 0.07 0.10 0.10 90 1012.5
20190325223423 56 329 0.0 0.0 0.06 0.09 0.09 90 1012.6
20190325222924 56 330 0.0 0.0 0.06 0.08 0.08 89 1012.6
20190325222421 56 330 0.0 0.0 0.05 0.07 0.07 89 1012.5
20190325221922 57 330 0.0 0.0 0.04 0.06 0.06 88 1012.4
20190325221421 57 330 0.0 0.0 0.05 0.06 0.06 88 1012.3
20190325220922 57 330 0.0 0.0 0.04 0.05 0.05 87 1012.1
20190325220422 57 330 0.0 0.0 0.04 0.05 0.05 87 1012.1
20190325215919 57 330 0.0 0.0 0.04 0.05 0.05 86 1012.2
20190325215419 58 330 0.0 0.0 0.04 0.05 0.05 86 1012.2
20190325214920 58 330 0.0 0.0 0.03 0.04 0.04 85 1012.3
20190325214420 58 330 0.0 0.0 0.03 0.04 0.04 84 1012.4
20190325213917 58 330 0.0 0.0 0.02 0.03 0.04 84 1012.5
20190325213415 58 325 0.0 0.0 0.02 0.03 0.03 83 1012.5
20190325212916 59 325 0.0 0.0 0.01 0.02 0.02 82 1012.5
20190325212416 59 325 0.0 0.0 0.02 0.02 0.02 81 1012.7
20190325211916 59 325 0.0 0.0 0.02 0.02 0.02 80 1012.6
20190325211413 59 325 0.0 0.0 0.01 0.01 0.02 79 1012.6
20190325210915 60 325 0.0 0.0 0.01 0.01 0.01 77 1012.6
20190325210413 60 325 0.0 0.0 0.01 0.01 0.01 76 1012.6
20190325205914 60 280 0.0 0.0 0.01 0.01 0.01 75 1012.5
20190325205415 60 303 0.0 0.0 0.01 0.01 0.01 75 1012.3
20190325204913 61 29 0.0 0.0 0.01 0.01 0.01 73 1012.4
20190325204413 61 348 0.0 0.0 0.01 0.01 0.01 73 1012.6
20190325203913 62 7 0.0 0.0 0.01 0.01 0.01 72 1012.7
20190325203411 63 2 0.0 0.0 0.01 0.01 0.01 71 1012.8
20190325202912 63 321 0.0 0.0 0.01 0.01 0.01 70 1012.8
20190325202412 64 338 0.0 0.0 0.00 0.00 0.00 71 1012.6
20190325201911 65 324 0.0 0.0 0.00 0.00 0.00 68 1012.7
20190325201412 65 325 0.0 0.0 0.00 0.00 0.00 65 1012.6
20190325200911 65 325 0.0 0.0 0.00 0.00 0.00 62 1012.5
20190325200412 66 325 0.0 0.0 0.00 0.00 0.00 59 1012.5
20190325195911 66 288 0.0 0.0 0.00 0.00 0.00 59 1012.5
20190325195411 67 284 0.0 0.0 0.00 0.00 0.00 61 1012.4
20190325194910 67 284 0.0 0.0 0.00 0.00 0.00 63 1012.4
20190325194409 67 284 0.0 0.0 0.00 0.00 0.00 61 1012.3
20190325193910 68 272 0.0 0.0 0.00 0.00 0.00 59 1012.4
20190325193410 68 272 0.0 0.0 0.00 0.00 0.00 54 1012.3
20190325192910 69 245 0.0 0.0 0.00 0.00 0.00 53 1012.4
20190325192410 69 285 0.0 0.0 0.00 0.00 0.00 50 1012.3
20190325191910 69 333 0.0 0.0 0.00 0.00 0.00 50 1012.3
20190325191409 69 256 0.0 0.0 0.00 0.00 0.00 50 1012.4
20190325190908 69 256 0.0 0.0 0.00 0.00 0.00 49 1012.4
20190325190407 69 257 0.0 0.0 0.00 0.00 0.00 49 1012.5
20190325185908 69 265 0.0 0.0 0.00 0.00 0.00 49 1012.5
20190325185407 69 229 0.0 0.0 0.00 0.00 0.00 48 1012.7
20190325184908 69 237 0.0 0.0 0.00 0.00 0.00 50 1012.8
20190325184408 68 231 0.0 0.0 0.00 0.00 0.00 50 1013.0
20190325183907 68 237 0.0 0.0 0.00 0.00 0.00 49 1013.0
20190325183408 69 285 0.0 0.0 0.00 0.00 0.00 50 1013.2
20190325182907 69 223 0.0 0.0 0.00 0.00 0.00 49 1013.1
20190325182408 69 259 0.0 0.0 0.00 0.00 0.00 49 1013.2
20190325181905 69 234 0.0 0.0 0.00 0.00 0.00 48 1013.1
20190325181404 70 212 0.0 0.0 0.00 0.00 0.00 47 1013.2
20190325180903 70 265 0.0 0.0 0.00 0.00 0.00 48 1013.3
20190325180403 70 221 0.0 0.0 0.00 0.00 0.00 48 1013.3
20190325175904 70 233 0.0 0.0 0.00 0.00 0.00 46 1013.3
20190325175403 71 202 0.0 0.0 0.00 0.00 0.00 46 1013.4
20190325174904 71 274 0.0 0.0 0.00 0.00 0.00 49 1013.5
20190325174403 71 179 0.0 0.0 0.00 0.00 0.00 51 1013.5
20190325173903 71 221 0.0 0.0 0.00 0.00 0.00 50 1013.5
20190325173403 71 274 0.0 0.0 0.00 0.00 0.00 55 1013.6
20190325172901 70 235 0.0 4.0 0.00 0.00 0.00 52 1013.6
20190325172401 70 148 0.0 4.0 0.00 0.00 0.00 53 1013.7
20190325171858 69 183 0.0 0.0 0.00 0.00 0.00 55 1013.9
20190325171359 69 110 0.0 0.0 0.00 0.00 0.00 58 1013.9
20190325170900 68 137 0.0 0.0 0.00 0.00 0.00 59 1013.9
20190325170400 68 250 0.0 0.0 0.00 0.00 0.00 58 1014.1
20190325165859 68 195 0.0 0.0 0.00 0.00 0.00 58 1014.1
20190325165357 68 210 0.0 0.0 0.00 0.00 0.00 59 1014.3
20190325164857 67 96 0.0 0.0 0.00 0.00 0.00 61 1014.4
20190325164356 67 158 0.0 0.0 0.00 0.00 0.00 60 1014.5
20190325163856 68 165 0.0 0.0 0.00 0.00 0.00 60 1014.5
20190325163357 68 207 0.0 0.0 0.00 0.00 0.00 58 1014.5
20190325162856 68 221 0.0 1.0 0.00 0.00 0.00 57 1014.6
20190325162357 68 212 0.0 1.0 0.00 0.00 0.00 58 1014.6
20190325161857 68 126 0.0 0.0 0.00 0.00 0.00 59 1014.7
20190325161357 68 142 0.0 0.0 0.00 0.00 0.00 65 1014.8
20190325160858 67 192 0.0 0.0 0.00 0.00 0.00 62 1014.8
20190325160358 67 136 0.0 0.0 0.00 0.00 0.00 63 1014.9
20190325155856 67 270 0.0 0.0 0.00 0.00 0.00 66 1014.9
20190325155357 67 233 0.0 0.0 0.00 0.00 0.00 68 1014.9
20190325154857 65 193 0.0 0.0 0.00 0.00 0.00 71 1015.0
20190325154358 65 260 0.0 0.0 0.00 0.00 0.00 70 1015.0
20190325153857 65 125 0.0 0.0 0.00 0.00 0.00 71 1015.1
20190325153357 64 135 0.0 0.0 0.00 0.00 0.00 73 1015.2
20190325152857 63 227 0.0 0.0 0.00 0.00 0.00 75 1015.3
20190325152356 62 295 0.0 0.0 0.00 0.00 0.00 75 1015.2
20190325151858 62 298 0.0 0.0 0.00 0.00 0.00 77 1015.3
20190325151357 62 312 0.0 0.0 0.00 0.00 0.00 77 1015.4
20190325150856 61 312 0.0 0.0 0.00 0.00 0.00 77 1015.5
20190325150358 61 156 0.0 0.0 0.00 0.00 0.00 77 1015.5
20190325145857 61 159 0.0 0.0 0.00 0.00 0.00 78 1015.6
20190325145358 61 158 0.0 0.0 0.00 0.00 0.00 79 1015.6
20190325144856 60 241 0.0 0.0 0.00 0.00 0.00 79 1015.7
20190325144358 60 154 0.0 0.0 0.00 0.00 0.00 81 1015.7
20190325143855 60 161 0.0 0.0 0.00 0.00 0.00 81 1015.7
20190325143355 60 171 0.0 0.0 0.00 0.00 0.00 81 1015.8
20190325142856 59 255 0.0 0.0 0.00 0.00 0.00 82 1015.8
20190325142353 59 255 0.0 0.0 0.00 0.00 0.00 83 1015.8
20190325141853 58 264 0.0 0.0 0.00 0.00 0.00 84 1015.8
20190325141352 58 124 0.0 0.0 0.00 0.00 0.00 86 1015.9
20190325140854 58 264 0.0 0.0 0.00 0.00 0.00 88 1015.8
20190325140352 57 231 0.0 0.0 0.00 0.00 0.00 88 1015.9
20190325135852 57 249 0.0 0.0 0.00 0.00 0.00 89 1015.9
20190325135354 57 140 0.0 0.0 0.00 0.00 0.00 90 1016.1
20190325134854 57 170 0.0 0.0 0.00 0.00 0.00 90 1016.1
20190325134350 56 170 0.0 0.0 0.00 0.00 0.00 90 1016.1
20190325133850 56 212 0.0 0.0 0.00 0.00 0.00 91 1016.4
20190325133350 56 231 0.0 0.0 0.00 0.00 0.00 91 1016.4
20190325132849 56 215 0.0 0.0 0.00 0.00 0.00 91 1016.4
20190325132347 56 215 0.0 0.0 0.00 0.00 0.00 92 1016.5
20190325131848 55 222 0.0 0.0 0.00 0.00 0.00 92 1016.5
20190325131348 55 136 0.0 0.0 0.00 0.00 0.00 92 1016.5
20190325130844 55 129 0.0 0.0 0.00 0.00 0.00 92 1016.5
20190325130344 54 146 0.0 0.0 0.00 0.00 0.00 92 1016.6
20190325125845 54 146 0.0 0.0 0.00 0.00 0.00 92 1016.7
20190325125344 54 146 0.0 0.0 0.00 0.00 0.00 92 1016.6
20190325124844 54 146 0.0 0.0 0.00 0.00 0.00 91 1016.5
20190325124345 54 146 0.0 0.0 0.00 0.00 0.00 91 1016.3
20190325123844 54 163 0.0 0.0 0.00 0.00 0.00 92 1016.3
20190325123343 53 164 0.0 0.0 0.00 0.00 0.00 92 1016.2
20190325122843 53 152 0.0 0.0 0.00 0.00 0.00 92 1016.2
20190325122344 53 141 0.0 0.0 0.00 0.00 0.00 92 1016.2
20190325121842 53 154 0.0 0.0 0.00 0.00 0.00 92 1016.2
20190325121342 53 154 0.0 0.0 0.00 0.00 0.00 92 1016.1
20190325120843 53 154 0.0 0.0 0.00 0.00 0.00 92 1016.2
20190325120344 52 154 0.0 0.0 0.00 0.00 0.00 92 1016.2
20190325115844 52 154 0.0 0.0 0.00 0.00 0.00 93 1016.2
20190325115343 52 154 0.0 0.0 0.00 0.00 0.00 93 1016.2
20190325114840 52 154 0.0 0.0 0.00 0.00 0.00 93 1016.3
20190325114340 52 154 0.0 0.0 0.00 0.00 0.00 93 1016.4
20190325113842 52 154 0.0 0.0 0.00 0.00 0.00 93 1016.4
20190325113340 51 122 0.0 0.0 0.00 0.00 0.00 93 1016.5
20190325112841 51 122 0.0 0.0 0.00 0.00 0.00 93 1016.5
20190325112340 51 122 0.0 0.0 0.00 0.00 0.00 92 1016.5
20190325111841 51 122 0.0 0.0 0.00 0.00 0.00 91 1016.5
20190325111340 51 122 0.0 0.0 0.00 0.00 0.00 91 1016.4
20190325110841 51 122 0.0 0.0 0.00 0.00 0.00 90 1016.4
20190325110340 51 122 0.0 0.0 0.00 0.00 0.00 90 1016.4
20190325105839 50 122 0.0 0.0 0.00 0.00 0.00 89 1016.3
20190325105338 50 122 0.0 0.0 0.00 0.00 0.00 89 1016.4
20190325104838 50 122 0.0 0.0 0.00 0.00 0.00 89 1016.4
20190325104339 51 122 0.0 0.0 0.00 0.00 0.00 89 1016.4
20190325103839 51 122 0.0 0.0 0.00 0.00 0.00 89 1016.4
20190325103339 51 122 0.0 0.0 0.00 0.00 0.00 88 1016.5
20190325102837 51 122 0.0 0.0 0.00 0.00 0.00 89 1016.6
20190325102337 51 122 0.0 0.0 0.00 0.00 0.00 88 1016.7
20190325101836 51 122 0.0 0.0 0.00 0.00 0.00 88 1016.6
20190325101337 51 122 0.0 0.0 0.00 0.00 0.00 87 1016.6
20190325100838 51 122 0.0 0.0 0.00 0.00 0.00 87 1016.7
20190325100337 51 122 0.0 0.0 0.00 0.00 0.00 87 1016.8
20190325095837 51 122 0.0 0.0 0.00 0.00 0.00 87 1016.8
20190325095338 51 122 0.0 0.0 0.00 0.00 0.00 86 1016.8
20190325094837 51 122 0.0 0.0 0.00 0.00 0.00 85 1016.8
20190325094335 51 122 0.0 0.0 0.00 0.00 0.00 85 1017.0
20190325093836 51 122 0.0 0.0 0.00 0.00 0.00 85 1016.8
20190325093337 51 122 0.0 0.0 0.00 0.00 0.00 85 1016.8
20190325092835 51 170 0.0 0.0 0.00 0.00 0.00 84 1016.8
20190325092334 51 170 0.0 0.0 0.00 0.00 0.00 83 1016.7
20190325091835 51 170 0.0 0.0 0.00 0.00 0.00 83 1016.7
20190325091334 51 170 0.0 0.0 0.00 0.00 0.00 82 1016.8
20190325090834 51 170 0.0 0.0 0.00 0.00 0.00 81 1016.8
20190325090334 51 170 0.0 0.0 0.00 0.00 0.00 80 1017.0
20190325085835 51 170 0.0 0.0 0.00 0.00 0.00 80 1017.0
20190325085335 51 170 0.0 0.0 0.00 0.00 0.00 79 1017.1
20190325084834 51 170 0.0 0.0 0.00 0.00 0.00 79 1017.2
20190325084333 52 170 0.0 0.0 0.00 0.00 0.00 78 1017.4
20190325083833 52 170 0.0 0.0 0.00 0.00 0.00 78 1017.4
20190325083331 52 170 0.0 0.0 0.00 0.00 0.00 77 1017.5
20190325082831 52 170 0.0 0.0 0.00 0.00 0.00 77 1017.5
20190325082331 53 170 0.0 0.0 0.00 0.00 0.00 77 1017.5
20190325081829 53 170 0.0 0.0 0.00 0.00 0.00 76 1017.7
20190325081328 53 170 0.0 0.0 0.00 0.00 0.00 76 1017.7
20190325080828 53 170 0.0 0.0 0.00 0.00 0.00 76 1017.7
20190325080327 53 170 0.0 0.0 0.00 0.00 0.00 76 1017.7
20190325075829 53 170 0.0 0.0 0.00 0.00 0.00 76 1017.9
20190325075328 53 170 0.0 0.0 0.00 0.00 0.00 75 1017.9
20190325074828 53 170 0.0 0.0 0.00 0.00 0.00 75 1017.9
20190325074328 53 137 0.0 0.0 0.00 0.00 0.00 75 1017.9
20190325073828 53 137 0.0 0.0 0.00 0.00 0.00 74 1017.9
20190325073327 53 137 0.0 0.0 0.00 0.00 0.00 74 1017.9
20190325072829 54 137 0.0 0.0 0.00 0.00 0.00 74 1018.0
20190325072328 54 144 0.0 0.0 0.00 0.00 0.00 73 1018.0
20190325071829 54 144 0.0 0.0 0.00 0.00 0.00 73 1018.0
20190325071327 54 119 0.0 0.0 0.00 0.00 0.00 73 1018.0
20190325070829 54 119 0.0 0.0 0.00 0.00 0.00 72 1018.0
20190325070328 54 167 0.0 0.0 0.00 0.00 0.00 72 1018.1
20190325065829 54 167 0.0 0.0 0.00 0.00 0.00 71 1018.1
20190325065327 54 167 0.0 0.0 0.00 0.00 0.00 70 1018.2
20190325064828 54 141 0.0 0.0 0.00 0.00 0.00 69 1018.3
20190325064328 54 138 0.0 0.0 0.00 0.00 0.00 68 1018.3
20190325063828 54 143 0.0 0.0 0.00 0.00 0.00 68 1018.3
20190325063329 53 153 0.0 0.0 0.00 0.00 0.00 68 1018.3
20190325062828 53 130 0.0 0.0 0.00 0.00 0.00 68 1018.3
20190325062327 53 132 0.0 0.0 0.00 0.00 0.00 67 1018.3
20190325061829 53 125 0.0 0.0 0.00 0.00 0.00 68 1018.3
20190325061328 52 161 0.0 0.0 0.00 0.00 0.00 68 1018.3
20190325060825 52 149 0.0 0.0 0.00 0.00 0.00 69 1018.4
20190325060325 53 149 0.0 0.0 0.00 0.00 0.00 69 1018.4
20190325055825 53 149 0.0 0.0 0.00 0.00 0.00 69 1018.4
20190325055325 53 149 0.0 0.0 0.00 0.00 0.00 69 1018.5
20190325054824 53 149 0.0 0.0 0.00 0.00 0.00 68 1018.6
20190325054324 54 149 0.0 0.0 0.00 0.00 0.00 67 1018.7
20190325053823 54 149 0.0 0.0 0.00 0.00 0.00 66 1018.7
20190325053324 54 149 0.0 0.0 0.00 0.00 0.00 67 1018.8
20190325052823 54 149 0.0 0.0 0.00 0.00 0.00 67 1018.7
20190325052322 54 149 0.0 0.0 0.00 0.00 0.00 67 1018.7
20190325051823 54 149 0.0 0.0 0.00 0.00 0.00 68 1018.8
20190325051321 55 149 0.0 0.0 0.00 0.00 0.00 68 1018.8
20190325050821 55 149 0.0 0.0 0.00 0.00 0.00 68 1018.8
20190325050322 55 149 0.0 0.0 0.00 0.00 0.00 67 1019.0
20190325045821 55 149 0.0 0.0 0.00 0.00 0.00 67 1019.0
20190325045321 55 149 0.0 0.0 0.00 0.00 0.00 68 1019.0
20190325044819 55 149 0.0 0.0 0.00 0.00 0.00 67 1019.0
20190325044317 55 149 0.0 0.0 0.00 0.00 0.00 67 1019.0
20190325043819 55 149 0.0 0.0 0.00 0.00 0.00 67 1019.1
20190325043317 55 149 0.0 0.0 0.00 0.00 0.00 66 1019.1
20190325042817 55 149 0.0 0.0 0.00 0.00 0.00 66 1019.1
20190325042317 56 149 0.0 0.0 0.00 0.00 0.00 66 1019.2
20190325041815 56 149 0.0 0.0 0.00 0.00 0.00 66 1019.2
20190325041316 56 149 0.0 0.0 0.00 0.00 0.00 66 1019.3
20190325040815 56 149 0.0 0.0 0.00 0.00 0.00 66 1019.2
20190325040316 56 149 0.0 0.0 0.00 0.00 0.00 66 1019.2
20190325035813 56 149 0.0 0.0 0.00 0.00 0.00 66 1019.2
20190325035311 56 149 0.0 0.0 0.00 0.00 0.00 66 1019.1
20190325034812 56 149 0.0 0.0 0.00 0.00 0.00 66 1019.1
20190325034310 56 149 0.0 0.0 0.00 0.00 0.00 66 1019.2
20190325033808 56 149 0.0 0.0 0.00 0.00 0.00 66 1019.3
20190325033308 56 149 0.0 0.0 0.00 0.00 0.00 66 1019.3
20190325032809 56 149 0.0 0.0 0.00 0.00 0.00 67 1019.2
20190325032308 56 149 0.0 0.0 0.00 0.00 0.00 67 1019.3
20190325031810 56 149 0.0 0.0 0.00 0.00 0.00 67 1019.4
20190325031309 56 149 0.0 0.0 0.00 0.00 0.00 66 1019.4
20190325030809 56 149 0.0 0.0 0.00 0.00 0.00 65 1019.5
20190325030309 57 149 0.0 0.0 0.00 0.00 0.00 63 1019.7
20190325025807 57 149 0.0 0.0 0.00 0.00 0.00 62 1019.7
20190325025307 57 149 0.0 0.0 0.00 0.00 0.00 62 1019.8
20190325024804 57 149 0.0 0.0 0.00 0.00 0.00 62 1019.7
20190325024306 57 149 0.0 0.0 0.00 0.00 0.00 61 1019.7
20190325023806 58 149 0.0 0.0 0.00 0.00 0.00 60 1019.8
20190325023304 58 149 0.0 0.0 0.00 0.00 0.00 60 1019.8
20190325022805 58 149 0.0 0.0 0.00 0.00 0.00 59 1019.9
20190325022304 58 149 0.0 0.0 0.00 0.00 0.00 59 1019.8
20190325021805 58 149 0.0 0.0 0.00 0.00 0.00 60 1019.8
20190325021305 58 149 0.0 0.0 0.00 0.00 0.00 60 1019.6
20190325020802 58 149 0.0 0.0 0.00 0.00 0.00 60 1019.6
20190325020302 58 154 0.0 0.0 0.00 0.00 0.00 60 1019.5
20190325015802 58 154 0.0 0.0 0.00 0.00 0.00 60 1019.5
20190325015303 58 154 0.0 0.0 0.00 0.00 0.00 59 1019.5
20190325014803 59 154 0.0 0.0 0.00 0.00 0.00 59 1019.5
20190325014303 59 154 0.0 0.0 0.00 0.00 0.00 59 1019.5
20190325013803 59 154 0.0 0.0 0.00 0.00 0.00 58 1019.5
20190325013302 59 154 0.0 0.0 0.00 0.00 0.00 58 1019.4
20190325012801 60 154 0.0 0.0 0.00 0.00 0.00 57 1019.5
20190325012300 60 154 0.0 0.0 0.00 0.00 0.00 56 1019.5
20190325011800 60 154 0.0 0.0 0.00 0.00 0.00 55 1019.4
20190325011301 61 154 0.0 0.0 0.00 0.00 0.00 54 1019.4
20190325010800 61 154 0.0 0.0 0.00 0.00 0.00 53 1019.4
20190325010302 61 154 0.0 0.0 0.00 0.00 0.00 52 1019.4
20190325005800 62 154 0.0 0.0 0.00 0.00 0.00 52 1019.4
20190325005300 62 154 0.0 0.0 0.00 0.00 0.00 52 1019.4
20190325004759 62 154 0.0 0.0 0.00 0.00 0.00 51 1019.4
20190325004259 62 154 0.0 0.0 0.00 0.00 0.00 51 1019.3
20190325003758 63 154 0.0 0.0 0.00 0.00 0.00 50 1019.3
20190325003258 63 154 0.0 0.0 0.00 0.00 0.00 49 1019.3
20190325002759 63 154 0.0 0.0 0.00 0.00 0.00 49 1019.2